»·PEaware :: N4A KFAT-KSAC

N4A :: KFAT-KSAC

FLIGHT INFORMATION

Flight Status: Arrived
Operator: Privately registered:
United States
More flights under this callsign
Pilot: Alec D. (17934)
Aircraft: CESSNA 550 CITATION 2/S2/BRAVO
(C550)
More flights by this aircraft type
Origin: KFAT Fresno Yosemite Intl
United States
Destination: KSAC Sacramento Executive
United States
More flights between these airports :: More routes between these airports
Route: YOSE3 CZQ V23 LIN
File this flight plan on PilotEdge
Remarks:
Altitude:
(Current/Filed)
14,000ft
Speed:
(Current/Filed)
340kts
Departed: 28-Sep-18 12:38 PM
Arrived: 28-Sep-18 01:11 PM
Distance/Time
Traveled:
134nm/0:33
Distance/Time
To Go:
Arrived

Flight Plot

Page will automatically refresh every two minutes.

Flight plan parsing failed; only flown route is shown


Map Options




Map Legend


Flown Route
Filed Route
Departure Airport
Arrival Airport
Navaid (VOR, NDB)
Fix

Horizontal Profiles

Position Reports

Time Latitude Longitude Heading Altitude Ground
Speed
28-Sep-18 12:16 36.778976 -119.730506 124 339ft 0kts
28-Sep-18 12:17 36.778976 -119.730506 124 339ft 0kts
28-Sep-18 12:18 36.778976 -119.730506 124 339ft 0kts
28-Sep-18 12:19 36.778976 -119.730506 124 339ft 0kts
28-Sep-18 12:20 36.778975 -119.730506 124 339ft 0kts
28-Sep-18 12:21 36.778973 -119.730501 124 339ft 0kts
28-Sep-18 12:22 36.778969 -119.730494 124 339ft 0kts
28-Sep-18 12:23 36.778965 -119.730487 124 339ft 0kts
28-Sep-18 12:24 36.778961 -119.730480 124 339ft 0kts
28-Sep-18 12:25 36.778957 -119.730473 124 339ft 0kts
28-Sep-18 12:26 36.778953 -119.730465 124 339ft 0kts
28-Sep-18 12:27 36.778949 -119.730459 124 339ft 0kts
28-Sep-18 12:28 36.778946 -119.730451 124 339ft 0kts
28-Sep-18 12:29 36.778942 -119.730444 124 339ft 0kts
28-Sep-18 12:30 36.778938 -119.730437 124 339ft 0kts
28-Sep-18 12:31 36.778934 -119.730430 124 339ft 0kts
28-Sep-18 12:32 36.778930 -119.730423 124 339ft 0kts
28-Sep-18 12:33 36.778918 -119.730052 78 339ft 13kts
28-Sep-18 12:34 36.777251 -119.726422 125 339ft 17kts
28-Sep-18 12:35 36.774132 -119.721044 122 339ft 24kts
28-Sep-18 12:36 36.771681 -119.715159 125 339ft 24kts
28-Sep-18 12:37 36.767933 -119.708523 123 339ft 28kts
28-Sep-18 12:38 36.767998 -119.703930 39 339ft 0kts
28-Sep-18 12:39 36.768003 -119.703924 39 339ft 0kts
28-Sep-18 12:40 36.770208 -119.705902 304 339ft 61kts
28-Sep-18 12:41 36.792624 -119.743575 305 1884ft 178kts
28-Sep-18 12:42 36.826389 -119.800525 304 4305ft 230kts
28-Sep-18 12:43 36.872341 -119.863457 330 6751ft 259kts
28-Sep-18 12:44 36.930626 -119.918241 320 9338ft 263kts
28-Sep-18 12:45 36.989120 -119.973554 320 11699ft 265kts
28-Sep-18 12:46 37.048048 -120.028603 319 13784ft 269kts
28-Sep-18 12:47 37.102515 -120.079570 320 14007ft 310kts
28-Sep-18 12:48 37.187578 -120.159210 320 14006ft 340kts
28-Sep-18 12:49 37.251285 -120.219022 320 13999ft 342kts
28-Sep-18 12:50 37.339371 -120.301934 320 13993ft 338kts
28-Sep-18 12:51 37.401777 -120.360839 320 13988ft 337kts
28-Sep-18 12:52 37.476856 -120.431877 320 14000ft 336kts
28-Sep-18 12:53 37.563866 -120.514418 320 13999ft 336kts
28-Sep-18 12:54 37.626027 -120.573537 320 13998ft 336kts
28-Sep-18 12:55 37.700814 -120.644863 320 14002ft 336kts
28-Sep-18 12:56 37.775350 -120.716079 320 14004ft 336kts
28-Sep-18 12:57 37.850173 -120.787789 319 14003ft 336kts
28-Sep-18 12:58 37.922791 -120.857527 320 12831ft 316kts
28-Sep-18 12:59 37.991921 -120.924106 320 11331ft 309kts
28-Sep-18 13:00 38.059126 -120.988993 320 9677ft 290kts
28-Sep-18 13:01 38.119415 -121.052500 316 7880ft 275kts
28-Sep-18 13:02 38.175815 -121.116245 317 6142ft 266kts
28-Sep-18 13:03 38.227759 -121.174216 317 5083ft 229kts
28-Sep-18 13:04 38.274389 -121.226274 316 4086ft 219kts
28-Sep-18 13:05 38.320529 -121.277871 316 4000ft 215kts
28-Sep-18 13:06 38.366791 -121.317119 341 3577ft 202kts
28-Sep-18 13:07 38.420294 -121.335113 343 3003ft 193kts
28-Sep-18 13:08 38.470298 -121.351104 343 2956ft 168kts
28-Sep-18 13:09 38.513908 -121.372440 323 2203ft 171kts
28-Sep-18 13:10 38.534844 -121.413848 287 1442ft 132kts
28-Sep-18 13:11 38.544260 -121.454963 264 917ft 123kts
28-Sep-18 13:12 38.524254 -121.484986 212 207ft 111kts
28-Sep-18 13:13 38.511242 -121.496511 277 27ft 7kts
28-Sep-18 13:14 38.513107 -121.497709 288 27ft 7kts
28-Sep-18 13:15 38.513016 -121.498009 215 27ft 0kts

Navigation Log

Ident Type
Flight plan parsing failed, navigation log unavailable